Time;durP1;ratioP1;P1;durP2;ratioP2;P2;SDS_P1;SDS_P2;PMS_P1;PMS_P2;Temp;Humidity;BMP_temperature;BMP_pressure;BME280_temperature;BME280_humidity;BME280_pressure;Samples;Min_cycle;Max_cycle;Signal;HPM_P1;HPM_P2
2023/03/29 00:02:28;;;;;;;19.40;8.40;;;;;;;;;;8328542;28;20461;-79
2023/03/29 00:06:33;;;;;;;17.70;9.05;;;;;;;;;;8328976;28;20501;-85
2023/03/29 00:10:36;;;;;;;20.35;8.98;;;;;;;;;;8328298;28;20049;-79
2023/03/29 00:14:39;;;;;;;24.30;9.45;;;;;;;;;;8328858;28;20417;-80
2023/03/29 00:18:42;;;;;;;21.85;9.68;;;;;;;;;;8328967;28;20402;-79
2023/03/29 00:22:46;;;;;;;23.27;8.93;;;;;;;;;;8328714;28;20046;-82
2023/03/29 00:26:49;;;;;;;21.02;8.88;;;;;;;;;;8328236;28;20104;-78
2023/03/29 00:30:51;;;;;;;20.95;7.85;;;;;;;;;;8327475;28;20046;-81
2023/03/29 00:34:55;;;;;;;21.40;8.88;;;;;;;;;;8327944;28;20053;-83
2023/03/29 00:38:59;;;;;;;22.45;9.07;;;;;;;;;;8328589;28;20072;-79
2023/03/29 00:43:02;;;;;;;22.05;8.82;;;;;;;;;;8327740;28;20052;-79
2023/03/29 00:47:05;;;;;;;23.20;8.98;;;;;;;;;;8328346;28;20444;-79
2023/03/29 00:51:12;;;;;;;23.83;9.13;;;;;;;;;;8327856;28;20049;-79
2023/03/29 00:55:20;;;;;;;20.25;8.50;;;;;;;;;;8328634;28;20103;-79
2023/03/29 00:59:27;;;;;;;18.92;8.48;;;;;;;;;;8327713;28;20042;-78
2023/03/29 01:03:34;;;;;;;16.30;7.90;;;;;;;;;;8328529;28;20041;-79
2023/03/29 01:07:46;;;;;;;18.13;7.47;;;;;;;;;;8331721;28;20077;-80
2023/03/29 01:11:55;;;;;;;16.20;7.25;;;;;;;;;;8334076;28;20091;-80
2023/03/29 01:15:59;;;;;;;17.98;7.45;;;;;;;;;;8334535;28;20768;-79
2023/03/29 01:20:12;;;;;;;17.73;8.05;;;;;;;;;;8334124;28;20045;-80
2023/03/29 01:24:40;;;;;;;20.55;8.60;;;;;;;;;;8333218;28;20124;-81
2023/03/29 01:28:50;;;;;;;20.27;8.40;;;;;;;;;;8333066;28;20041;-81
2023/03/29 01:32:57;;;;;;;16.30;7.75;;;;;;;;;;8333326;28;20049;-82
2023/03/29 01:37:06;;;;;;;18.13;7.50;;;;;;;;;;8332654;28;20061;-82
2023/03/29 01:41:08;;;;;;;17.08;7.03;;;;;;;;;;8333080;28;20049;-79
2023/03/29 01:45:22;;;;;;;17.25;6.80;;;;;;;;;;8333055;28;20041;-79
2023/03/29 01:49:33;;;;;;;18.40;7.50;;;;;;;;;;8333257;28;20047;-83
2023/03/29 01:53:42;;;;;;;19.73;7.22;;;;;;;;;;8333048;28;20052;-78
2023/03/29 01:57:46;;;;;;;13.30;6.43;;;;;;;;;;8332573;28;20087;-79
2023/03/29 02:01:54;;;;;;;11.88;6.55;;;;;;;;;;8327346;28;20042;-76
2023/03/29 02:05:58;;;;;;;16.85;6.65;;;;;;;;;;8322791;28;20054;-76
2023/03/29 02:10:02;;;;;;;15.30;6.72;;;;;;;;;;8311446;28;20053;-77
2023/03/29 02:14:05;;;;;;;16.40;6.82;;;;;;;;;;8331669;28;20042;-79
2023/03/29 02:18:09;;;;;;;15.07;6.22;;;;;;;;;;8309618;28;20463;-78
2023/03/29 02:22:15;;;;;;;19.88;7.90;;;;;;;;;;8315629;28;20544;-79
2023/03/29 02:26:18;;;;;;;16.92;6.65;;;;;;;;;;8311749;28;20172;-78
2023/03/29 02:30:22;;;;;;;16.35;6.68;;;;;;;;;;8290327;28;20042;-83
2023/03/29 02:34:30;;;;;;;18.35;6.75;;;;;;;;;;8315286;28;20045;-83
2023/03/29 02:38:34;;;;;;;13.57;6.78;;;;;;;;;;8320241;28;20137;-79
2023/03/29 02:42:37;;;;;;;14.80;6.75;;;;;;;;;;8314340;28;20050;-80
2023/03/29 02:46:41;;;;;;;14.95;6.97;;;;;;;;;;8300402;28;20049;-78
2023/03/29 02:50:49;;;;;;;14.73;6.90;;;;;;;;;;8295698;28;20046;-81
2023/03/29 02:54:55;;;;;;;17.33;7.30;;;;;;;;;;8313013;28;20050;-80
2023/03/29 02:58:57;;;;;;;16.63;6.95;;;;;;;;;;8330633;28;20053;-79
2023/03/29 03:03:01;;;;;;;22.75;9.23;;;;;;;;;;8325379;28;20050;-80
2023/03/29 03:07:06;;;;;;;19.33;10.45;;;;;;;;;;8300593;28;20111;-77
2023/03/29 03:11:09;;;;;;;41.47;20.85;;;;;;;;;;8326941;28;20049;-78
2023/03/29 03:15:12;;;;;;;36.22;19.25;;;;;;;;;;8310177;28;20037;-85
2023/03/29 03:19:15;;;;;;;24.67;12.15;;;;;;;;;;8299930;28;20077;-83
2023/03/29 03:23:19;;;;;;;18.55;7.32;;;;;;;;;;8304924;28;20041;-79
2023/03/29 03:27:22;;;;;;;18.60;7.75;;;;;;;;;;8320400;28;20041;-78
2023/03/29 03:31:27;;;;;;;19.30;10.13;;;;;;;;;;8329024;28;20042;-77
2023/03/29 03:35:29;;;;;;;23.85;11.00;;;;;;;;;;8329300;28;20049;-77
2023/03/29 03:39:34;;;;;;;28.15;10.80;;;;;;;;;;8330053;28;20409;-79
2023/03/29 03:43:36;;;;;;;35.20;12.15;;;;;;;;;;8329636;28;20489;-81
2023/03/29 03:47:39;;;;;;;22.33;7.53;;;;;;;;;;8329298;28;20436;-77
2023/03/29 03:51:44;;;;;;;17.83;6.75;;;;;;;;;;8329133;28;20550;-77
2023/03/29 03:55:49;;;;;;;28.77;13.38;;;;;;;;;;8328468;28;20048;-77
2023/03/29 03:59:52;;;;;;;22.77;9.52;;;;;;;;;;8329309;28;20042;-79
2023/03/29 04:03:55;;;;;;;21.45;9.13;;;;;;;;;;8328964;28;20045;-79
2023/03/29 04:07:58;;;;;;;20.75;8.20;;;;;;;;;;8296493;28;20038;-78
2023/03/29 04:12:02;;;;;;;23.90;10.27;;;;;;;;;;8322185;28;20057;-77
2023/03/29 04:16:06;;;;;;;51.83;13.60;;;;;;;;;;8328266;28;20501;-80
2023/03/29 04:20:11;;;;;;;27.55;11.45;;;;;;;;;;8308459;28;20041;-77
2023/03/29 04:24:14;;;;;;;26.58;11.77;;;;;;;;;;8299546;28;20038;-79
2023/03/29 04:28:18;;;;;;;26.35;12.75;;;;;;;;;;8290797;28;20398;-80
2023/03/29 04:32:21;;;;;;;25.45;11.05;;;;;;;;;;8280080;28;20051;-80
2023/03/29 04:36:24;;;;;;;29.58;13.23;;;;;;;;;;8314651;28;20058;-79
2023/03/29 04:40:27;;;;;;;29.77;13.50;;;;;;;;;;8318584;28;20049;-77
2023/03/29 04:44:32;;;;;;;34.80;12.75;;;;;;;;;;8333831;28;20486;-77
2023/03/29 04:48:36;;;;;;;31.77;14.15;;;;;;;;;;8334127;28;20053;-77
2023/03/29 04:52:39;;;;;;;93.75;34.88;;;;;;;;;;8306707;28;20052;-79
2023/03/29 04:56:42;;;;;;;82.35;36.25;;;;;;;;;;8316162;28;20037;-80
2023/03/29 05:00:48;;;;;;;30.05;13.18;;;;;;;;;;8330288;28;20068;-80
2023/03/29 05:04:52;;;;;;;87.93;40.08;;;;;;;;;;8332898;28;20052;-80
2023/03/29 05:08:55;;;;;;;80.68;41.28;;;;;;;;;;8307904;28;20054;-81
2023/03/29 05:12:58;;;;;;;102.97;48.15;;;;;;;;;;8307542;28;20473;-79
2023/03/29 05:17:05;;;;;;;79.65;40.83;;;;;;;;;;8314681;28;20053;-79
2023/03/29 05:21:08;;;;;;;40.97;21.27;;;;;;;;;;8326039;28;20037;-83
2023/03/29 05:25:12;;;;;;;28.83;12.60;;;;;;;;;;8333747;28;20048;-79
2023/03/29 05:29:15;;;;;;;31.23;14.35;;;;;;;;;;8321928;28;20060;-78
2023/03/29 05:33:19;;;;;;;49.60;23.30;;;;;;;;;;8333861;28;20049;-79
2023/03/29 05:37:22;;;;;;;67.55;28.13;;;;;;;;;;8332734;28;20072;-79
2023/03/29 05:41:26;;;;;;;32.58;15.60;;;;;;;;;;8320430;28;20046;-78
2023/03/29 05:45:30;;;;;;;26.17;11.30;;;;;;;;;;8331948;28;20099;-88
2023/03/29 05:49:34;;;;;;;24.52;9.57;;;;;;;;;;8320660;28;20061;-81
2023/03/29 05:53:37;;;;;;;23.88;8.43;;;;;;;;;;8322958;28;20519;-79
2023/03/29 05:57:40;;;;;;;18.73;9.00;;;;;;;;;;8332732;28;20049;-80
2023/03/29 06:01:45;;;;;;;17.20;8.02;;;;;;;;;;8319706;28;20057;-81
2023/03/29 06:05:58;;;;;;;18.98;7.10;;;;;;;;;;8309601;28;20053;-83
2023/03/29 06:10:03;;;;;;;24.67;9.32;;;;;;;;;;8318788;28;20037;-81
2023/03/29 06:14:07;;;;;;;20.50;9.32;;;;;;;;;;8322179;28;20433;-81
2023/03/29 06:18:09;;;;;;;15.10;8.15;;;;;;;;;;8286488;28;20249;-90
2023/03/29 06:22:14;;;;;;;18.85;10.25;;;;;;;;;;8310637;28;20049;-81
2023/03/29 06:26:17;;;;;;;15.93;8.40;;;;;;;;;;8308940;28;20053;-82
2023/03/29 06:30:20;;;;;;;16.75;8.80;;;;;;;;;;8310850;28;20048;-90
2023/03/29 06:34:23;;;;;;;30.27;12.98;;;;;;;;;;8302423;28;20041;-81
2023/03/29 06:38:29;;;;;;;26.73;11.30;;;;;;;;;;8317732;28;20556;-83
2023/03/29 06:42:32;;;;;;;33.00;13.40;;;;;;;;;;8313451;28;20045;-85
2023/03/29 06:46:37;;;;;;;16.25;8.00;;;;;;;;;;8328953;28;20049;-81
2023/03/29 06:50:40;;;;;;;14.70;6.80;;;;;;;;;;8326650;28;20091;-83
2023/03/29 06:54:45;;;;;;;11.98;6.47;;;;;;;;;;8331451;28;20049;-82
2023/03/29 06:58:48;;;;;;;16.08;8.23;;;;;;;;;;8304069;28;20046;-81
2023/03/29 07:02:51;;;;;;;18.35;8.32;;;;;;;;;;8322157;28;20041;-87
2023/03/29 07:07:00;;;;;;;12.88;7.57;;;;;;;;;;8321506;28;20042;-81
2023/03/29 07:11:04;;;;;;;13.23;7.22;;;;;;;;;;8314784;28;20057;-80
2023/03/29 07:15:08;;;;;;;8.68;4.93;;;;;;;;;;8323891;28;20132;-85
2023/03/29 07:19:12;;;;;;;10.85;5.32;;;;;;;;;;8293615;28;20050;-81
2023/03/29 07:23:16;;;;;;;8.00;3.92;;;;;;;;;;8296676;28;20102;-80
2023/03/29 07:27:21;;;;;;;8.82;5.10;;;;;;;;;;8294905;28;20409;-80
2023/03/29 07:31:24;;;;;;;11.20;4.75;;;;;;;;;;8313926;28;20056;-81
2023/03/29 07:35:27;;;;;;;8.98;4.68;;;;;;;;;;8330570;28;20053;-80
2023/03/29 07:39:30;;;;;;;8.68;4.22;;;;;;;;;;8330483;28;20056;-80
2023/03/29 07:43:34;;;;;;;5.72;3.10;;;;;;;;;;8330447;28;20056;-80
2023/03/29 07:47:37;;;;;;;6.50;3.30;;;;;;;;;;8331759;28;20056;-81
2023/03/29 07:51:41;;;;;;;6.32;3.25;;;;;;;;;;8305138;28;20542;-80
2023/03/29 07:55:46;;;;;;;6.13;3.38;;;;;;;;;;8331451;28;20061;-81
2023/03/29 07:59:53;;;;;;;7.63;3.60;;;;;;;;;;8333673;28;20507;-81
2023/03/29 08:03:58;;;;;;;6.38;3.03;;;;;;;;;;8332710;28;20076;-85
2023/03/29 08:08:01;;;;;;;6.97;3.40;;;;;;;;;;8306382;28;20046;-82
2023/03/29 08:12:05;;;;;;;6.65;3.20;;;;;;;;;;8332114;28;20137;-80
2023/03/29 08:16:10;;;;;;;5.45;2.78;;;;;;;;;;8338036;28;20048;-80
2023/03/29 08:20:15;;;;;;;8.23;3.25;;;;;;;;;;8341825;28;20405;-80
2023/03/29 08:24:18;;;;;;;15.82;8.50;;;;;;;;;;8344950;28;20137;-84
2023/03/29 08:28:21;;;;;;;5.55;3.08;;;;;;;;;;8335561;28;20486;-80
2023/03/29 08:32:26;;;;;;;4.65;3.05;;;;;;;;;;8307692;28;20054;-80
2023/03/29 08:36:29;;;;;;;5.00;2.33;;;;;;;;;;8308152;28;20070;-81
2023/03/29 08:40:32;;;;;;;5.43;3.03;;;;;;;;;;8311838;28;20073;-80
2023/03/29 08:44:52;;;;;;;13.00;5.90;;;;;;;;;;8312602;28;20069;-81
2023/03/29 08:49:01;;;;;;;12.15;5.43;;;;;;;;;;8323303;28;20049;-81
2023/03/29 08:53:13;;;;;;;5.00;2.58;;;;;;;;;;8311370;28;20054;-81
2023/03/29 08:57:22;;;;;;;4.95;2.70;;;;;;;;;;8312833;28;20130;-79
2023/03/29 09:01:28;;;;;;;9.13;3.45;;;;;;;;;;8328162;28;20053;-80
2023/03/29 09:05:38;;;;;;;8.82;3.63;;;;;;;;;;8326799;28;20057;-80
2023/03/29 09:09:42;;;;;;;5.47;2.97;;;;;;;;;;8311797;28;20065;-80
2023/03/29 09:13:52;;;;;;;5.75;2.80;;;;;;;;;;8323759;28;20192;-79
2023/03/29 09:18:06;;;;;;;4.85;2.50;;;;;;;;;;8304147;28;20062;-80
2023/03/29 09:22:17;;;;;;;4.97;2.65;;;;;;;;;;8313823;28;20409;-80
2023/03/29 09:26:29;;;;;;;5.50;2.95;;;;;;;;;;8332242;28;20050;-79
2023/03/29 09:30:40;;;;;;;5.72;2.58;;;;;;;;;;8329994;28;20145;-80
2023/03/29 09:34:45;;;;;;;5.45;2.50;;;;;;;;;;8324754;28;20045;-89
2023/03/29 09:38:53;;;;;;;4.57;2.53;;;;;;;;;;8306435;28;20052;-81
2023/03/29 09:42:57;;;;;;;6.97;3.22;;;;;;;;;;8322270;28;20049;-80
2023/03/29 09:47:12;;;;;;;4.80;2.45;;;;;;;;;;8311109;28;20097;-81
2023/03/29 09:51:15;;;;;;;6.55;2.90;;;;;;;;;;8300522;28;20054;-80
2023/03/29 09:55:22;;;;;;;4.68;2.60;;;;;;;;;;8293050;28;20038;-80
2023/03/29 09:59:25;;;;;;;5.80;3.00;;;;;;;;;;8297468;28;20497;-81
2023/03/29 10:03:30;;;;;;;6.57;3.53;;;;;;;;;;8304043;28;20042;-79
2023/03/29 10:07:43;;;;;;;5.30;2.95;;;;;;;;;;8304465;28;20092;-78
2023/03/29 10:11:52;;;;;;;5.75;2.97;;;;;;;;;;8294713;28;20830;-80
2023/03/29 10:16:01;;;;;;;5.57;2.70;;;;;;;;;;8296564;28;20058;-80
2023/03/29 10:20:07;;;;;;;5.35;2.85;;;;;;;;;;8318685;28;20071;-81
2023/03/29 10:24:10;;;;;;;4.88;2.50;;;;;;;;;;8309059;28;20046;-78
2023/03/29 10:28:19;;;;;;;5.18;2.47;;;;;;;;;;8306341;28;20081;-81
2023/03/29 10:32:29;;;;;;;4.85;2.90;;;;;;;;;;8297415;28;20048;-80
2023/03/29 10:36:32;;;;;;;8.27;3.50;;;;;;;;;;8291592;28;20049;-82
2023/03/29 10:40:43;;;;;;;4.88;2.80;;;;;;;;;;8293553;28;20054;-81
2023/03/29 10:44:54;;;;;;;4.30;2.30;;;;;;;;;;8291478;28;20068;-85
2023/03/29 10:49:01;;;;;;;9.05;2.65;;;;;;;;;;8296569;28;20099;-80
2023/03/29 10:53:22;;;;;;;7.97;3.17;;;;;;;;;;8292091;28;20042;-79
2023/03/29 10:57:34;;;;;;;8.70;3.92;;;;;;;;;;8299380;28;20525;-91
2023/03/29 11:01:46;;;;;;;7.28;2.70;;;;;;;;;;8282227;28;20060;-80
2023/03/29 11:05:57;;;;;;;5.72;2.70;;;;;;;;;;8293186;28;20137;-82
2023/03/29 11:10:10;;;;;;;5.28;2.75;;;;;;;;;;8290526;28;20549;-86
2023/03/29 11:14:22;;;;;;;3.53;1.90;;;;;;;;;;8285752;28;20053;-85
2023/03/29 11:18:50;;;;;;;5.85;2.20;;;;;;;;;;8284544;28;20056;-86
2023/03/29 11:23:08;;;;;;;5.43;2.72;;;;;;;;;;8288129;28;20077;-91
2023/03/29 11:27:23;;;;;;;4.43;2.33;;;;;;;;;;8291491;28;20065;-78
2023/03/29 11:31:36;;;;;;;4.32;2.20;;;;;;;;;;8297760;28;20627;-79
2023/03/29 11:35:52;;;;;;;3.70;1.75;;;;;;;;;;8293732;28;20061;-89
2023/03/29 11:40:07;;;;;;;4.97;2.63;;;;;;;;;;8299206;28;20542;-91
2023/03/29 11:44:15;;;;;;;3.47;1.92;;;;;;;;;;8309258;28;20049;-80
2023/03/29 11:48:23;;;;;;;4.35;2.17;;;;;;;;;;8316313;28;20107;-91
2023/03/29 11:52:31;;;;;;;5.03;2.30;;;;;;;;;;8288517;28;20045;-81
2023/03/29 11:56:37;;;;;;;6.45;3.25;;;;;;;;;;8313803;28;20072;-83
2023/03/29 12:00:45;;;;;;;5.70;2.85;;;;;;;;;;8332204;28;20128;-87
2023/03/29 12:04:52;;;;;;;5.18;2.65;;;;;;;;;;8332227;28;20046;-82
2023/03/29 12:09:00;;;;;;;4.82;2.80;;;;;;;;;;8293187;28;20072;-91
2023/03/29 12:13:08;;;;;;;4.50;2.22;;;;;;;;;;8287926;28;20049;-80
2023/03/29 12:17:17;;;;;;;3.33;2.40;;;;;;;;;;8293611;28;20048;-88
2023/03/29 12:21:22;;;;;;;4.72;2.88;;;;;;;;;;8296832;28;20042;-86
2023/03/29 12:25:31;;;;;;;4.30;2.53;;;;;;;;;;8294728;28;20084;-87
2023/03/29 12:29:52;;;;;;;6.32;2.72;;;;;;;;;;8294850;28;20050;-88
2023/03/29 12:34:24;;;;;;;4.85;2.50;;;;;;;;;;8293434;28;20050;-82
2023/03/29 12:38:35;;;;;;;4.50;2.28;;;;;;;;;;8293273;28;20053;-81
2023/03/29 12:42:51;;;;;;;4.70;2.20;;;;;;;;;;8319173;28;20050;-83
2023/03/29 12:46:59;;;;;;;5.78;2.63;;;;;;;;;;8294820;28;20046;-82
2023/03/29 12:51:04;;;;;;;7.22;3.53;;;;;;;;;;8306444;28;20569;-92
2023/03/29 12:55:34;;;;;;;6.18;2.80;;;;;;;;;;8292804;28;20536;-83
2023/03/29 12:59:43;;;;;;;5.00;2.53;;;;;;;;;;8306291;28;20429;-80
2023/03/29 13:03:50;;;;;;;5.55;2.72;;;;;;;;;;8297043;28;20046;-79
2023/03/29 13:07:54;;;;;;;7.72;3.00;;;;;;;;;;8300108;28;20057;-82
2023/03/29 13:12:04;;;;;;;6.28;2.80;;;;;;;;;;8290314;28;20145;-92
2023/03/29 13:16:16;;;;;;;6.23;3.13;;;;;;;;;;8290396;28;20053;-89
2023/03/29 13:20:31;;;;;;;5.97;3.08;;;;;;;;;;8292260;28;20060;-84
2023/03/29 13:24:49;;;;;;;5.28;2.85;;;;;;;;;;8298997;28;20386;-84
2023/03/29 13:29:05;;;;;;;6.43;3.03;;;;;;;;;;8310876;28;20168;-86
2023/03/29 13:33:22;;;;;;;6.80;3.40;;;;;;;;;;8298546;28;20049;-89
2023/03/29 13:37:36;;;;;;;10.38;3.65;;;;;;;;;;8295949;28;20072;-85
2023/03/29 13:41:48;;;;;;;7.22;4.28;;;;;;;;;;8301681;28;20046;-86
2023/03/29 13:46:14;;;;;;;6.57;3.45;;;;;;;;;;8298968;28;20120;-84
2023/03/29 13:50:29;;;;;;;8.30;4.10;;;;;;;;;;8301656;28;20060;-88
2023/03/29 13:54:37;;;;;;;8.90;3.70;;;;;;;;;;8301539;28;20053;-81
2023/03/29 13:58:45;;;;;;;9.00;4.13;;;;;;;;;;8294773;28;20071;-81
2023/03/29 14:02:51;;;;;;;8.57;3.67;;;;;;;;;;8284070;28;20129;-87
2023/03/29 14:06:57;;;;;;;5.72;3.13;;;;;;;;;;8310753;28;20104;-88
2023/03/29 14:11:01;;;;;;;6.00;3.10;;;;;;;;;;8333743;28;20098;-86
2023/03/29 14:15:07;;;;;;;6.50;2.10;;;;;;;;;;8333783;28;20470;-90
2023/03/29 14:19:16;;;;;;;2.70;2.00;;;;;;;;;;8314582;28;20568;-90
2023/03/29 14:23:22;;;;;;;6.35;2.70;;;;;;;;;;8314026;28;20107;-89
2023/03/29 14:27:30;;;;;;;6.78;3.40;;;;;;;;;;8333317;28;20551;-90
2023/03/29 14:31:35;;;;;;;5.70;3.20;;;;;;;;;;8312531;28;20049;-90
2023/03/29 14:35:39;;;;;;;4.63;2.55;;;;;;;;;;8321003;28;20053;-90
2023/03/29 14:39:43;;;;;;;7.20;3.50;;;;;;;;;;8332814;28;20045;-85
2023/03/29 14:43:47;;;;;;;5.95;3.30;;;;;;;;;;8320831;28;20056;-88
2023/03/29 14:47:51;;;;;;;9.23;4.80;;;;;;;;;;8322096;28;20042;-91
2023/03/29 14:51:55;;;;;;;4.10;2.53;;;;;;;;;;8323783;28;20069;-83
2023/03/29 14:56:00;;;;;;;5.50;2.50;;;;;;;;;;8295747;28;20050;-87
2023/03/29 15:00:23;;;;;;;6.80;4.15;;;;;;;;;;8307370;28;20120;-90
2023/03/29 15:04:32;;;;;;;;;;;;;;;;;;8302936;28;20551;-83
2023/03/29 15:08:37;;;;;;;3.65;2.13;;;;;;;;;;8327450;28;19975;-87
2023/03/29 15:12:45;;;;;;;7.68;3.70;;;;;;;;;;8308772;28;20077;-92
2023/03/29 15:16:50;;;;;;;5.28;2.60;;;;;;;;;;8302190;28;20183;-86
2023/03/29 15:20:52;;;;;;;9.70;5.10;;;;;;;;;;8326586;28;20072;-86
2023/03/29 15:24:58;;;;;;;12.55;8.05;;;;;;;;;;8306017;28;20041;-90
2023/03/29 15:29:12;;;;;;;32.22;15.15;;;;;;;;;;8313417;28;20048;-83
2023/03/29 15:33:19;;;;;;;15.68;8.98;;;;;;;;;;8303037;28;20056;-87
2023/03/29 15:37:22;;;;;;;6.03;3.08;;;;;;;;;;8304379;28;20045;-79
2023/03/29 15:41:25;;;;;;;4.55;2.97;;;;;;;;;;8328776;28;20057;-81
2023/03/29 15:45:30;;;;;;;8.35;3.05;;;;;;;;;;8330468;28;20045;-82
2023/03/29 15:49:33;;;;;;;22.88;9.02;;;;;;;;;;8299136;28;20665;-82
2023/03/29 15:53:36;;;;;;;11.95;4.78;;;;;;;;;;8288117;28;20121;-80
2023/03/29 15:57:38;;;;;;;11.07;5.30;;;;;;;;;;8297784;28;20046;-80
2023/03/29 16:01:45;;;;;;;8.43;4.50;;;;;;;;;;8291858;28;20046;-87
2023/03/29 16:05:55;;;;;;;5.88;3.00;;;;;;;;;;8290834;28;20057;-82
2023/03/29 16:09:58;;;;;;;11.38;5.57;;;;;;;;;;8300445;28;20464;-86
2023/03/29 16:14:01;;;;;;;7.03;3.80;;;;;;;;;;8329175;28;20053;-80
2023/03/29 16:18:07;;;;;;;20.77;10.50;;;;;;;;;;8278932;28;20089;-80
2023/03/29 16:22:10;;;;;;;21.83;8.60;;;;;;;;;;8296417;28;20104;-81
2023/03/29 16:26:14;;;;;;;11.68;4.95;;;;;;;;;;8300424;28;20050;-79
2023/03/29 16:30:17;;;;;;;6.93;3.10;;;;;;;;;;8287698;28;20061;-78
2023/03/29 16:34:22;;;;;;;13.05;6.03;;;;;;;;;;8292990;28;20045;-79
2023/03/29 16:38:27;;;;;;;11.45;5.07;;;;;;;;;;8315934;28;20501;-79
2023/03/29 16:42:31;;;;;;;8.23;4.03;;;;;;;;;;8302888;28;20041;-80
2023/03/29 16:46:37;;;;;;;5.10;3.28;;;;;;;;;;8306424;28;20084;-80
2023/03/29 16:50:47;;;;;;;8.00;3.47;;;;;;;;;;8300682;28;20218;-79
2023/03/29 16:54:52;;;;;;;5.60;2.80;;;;;;;;;;8323459;28;20054;-80
2023/03/29 16:58:55;;;;;;;5.90;3.03;;;;;;;;;;8333715;28;20057;-86
2023/03/29 17:03:00;;;;;;;7.75;3.42;;;;;;;;;;8329775;28;20133;-79
2023/03/29 17:07:07;;;;;;;6.82;2.60;;;;;;;;;;8310756;28;20211;-79
2023/03/29 17:11:11;;;;;;;5.07;2.20;;;;;;;;;;8308666;28;20065;-80
2023/03/29 17:15:16;;;;;;;3.67;2.35;;;;;;;;;;8299077;28;20481;-80
2023/03/29 17:19:19;;;;;;;18.55;10.27;;;;;;;;;;8288594;28;20165;-83
2023/03/29 17:23:25;;;;;;;51.45;19.95;;;;;;;;;;8321787;28;20071;-81
2023/03/29 17:27:30;;;;;;;25.67;10.90;;;;;;;;;;8314482;28;20050;-79
2023/03/29 17:31:35;;;;;;;11.27;4.80;;;;;;;;;;8315105;28;20049;-82
2023/03/29 17:35:41;;;;;;;8.57;4.40;;;;;;;;;;8318268;28;20060;-82
2023/03/29 17:39:47;;;;;;;6.85;3.47;;;;;;;;;;8315487;28;20054;-80
2023/03/29 17:43:51;;;;;;;6.05;3.97;;;;;;;;;;8308893;28;20041;-78
2023/03/29 17:47:54;;;;;;;37.38;16.48;;;;;;;;;;8332094;28;20048;-79
2023/03/29 17:51:57;;;;;;;38.90;20.65;;;;;;;;;;8331272;28;20046;-78
2023/03/29 17:56:02;;;;;;;33.03;16.25;;;;;;;;;;8332899;28;20052;-81
2023/03/29 18:00:10;;;;;;;74.45;22.75;;;;;;;;;;8319267;28;20399;-78
2023/03/29 18:04:15;;;;;;;33.58;14.88;;;;;;;;;;8327489;28;20408;-79
2023/03/29 18:08:19;;;;;;;50.78;24.30;;;;;;;;;;8328965;28;20034;-84
2023/03/29 18:12:25;;;;;;;91.38;29.52;;;;;;;;;;8328132;28;20413;-79
2023/03/29 18:16:28;;;;;;;63.42;25.13;;;;;;;;;;8330069;28;20140;-80
2023/03/29 18:20:32;;;;;;;35.05;15.60;;;;;;;;;;8297745;28;20092;-80
2023/03/29 18:24:36;;;;;;;65.68;26.17;;;;;;;;;;8285696;28;20070;-85
2023/03/29 18:28:45;;;;;;;141.57;59.22;;;;;;;;;;8312751;28;20048;-88
2023/03/29 18:32:49;;;;;;;146.15;44.53;;;;;;;;;;8293358;28;20160;-86
2023/03/29 18:36:53;;;;;;;335.00;106.35;;;;;;;;;;8304346;28;20092;-78
2023/03/29 18:40:59;;;;;;;129.27;43.00;;;;;;;;;;8297228;28;20061;-82
2023/03/29 18:45:12;;;;;;;95.38;27.10;;;;;;;;;;8303287;28;20038;-78
2023/03/29 18:49:18;;;;;;;69.28;22.70;;;;;;;;;;8323622;28;20046;-83
2023/03/29 18:53:22;;;;;;;128.48;43.55;;;;;;;;;;8329603;28;20053;-78
2023/03/29 18:57:27;;;;;;;69.35;25.58;;;;;;;;;;8328074;28;20044;-79
2023/03/29 19:01:32;;;;;;;52.80;19.10;;;;;;;;;;8328310;28;20439;-78
2023/03/29 19:05:39;;;;;;;53.25;18.13;;;;;;;;;;8314997;28;20111;-79
2023/03/29 19:09:45;;;;;;;39.40;15.20;;;;;;;;;;8324084;28;20050;-79
2023/03/29 19:13:51;;;;;;;78.03;20.75;;;;;;;;;;8313651;28;20050;-80
2023/03/29 19:18:06;;;;;;;43.05;16.27;;;;;;;;;;8314792;28;20494;-80
2023/03/29 19:22:11;;;;;;;176.80;44.72;;;;;;;;;;8328406;28;20482;-80
2023/03/29 19:26:14;;;;;;;63.95;20.98;;;;;;;;;;8327217;28;20406;-86
2023/03/29 19:30:22;;;;;;;114.15;32.55;;;;;;;;;;8311524;28;20482;-79
2023/03/29 19:34:29;;;;;;;80.70;29.88;;;;;;;;;;8329600;28;20720;-78
2023/03/29 19:38:34;;;;;;;31.38;12.18;;;;;;;;;;8329670;28;20118;-79
2023/03/29 19:42:41;;;;;;;63.92;20.75;;;;;;;;;;8329775;28;20115;-79
2023/03/29 19:46:45;;;;;;;86.03;25.17;;;;;;;;;;8324848;28;20103;-79
2023/03/29 19:50:50;;;;;;;108.82;36.78;;;;;;;;;;8305942;28;20046;-86
2023/03/29 19:54:57;;;;;;;45.33;15.13;;;;;;;;;;8329176;28;20099;-87
2023/03/29 19:59:01;;;;;;;28.85;10.65;;;;;;;;;;8328771;28;20050;-80
2023/03/29 20:03:07;;;;;;;40.42;17.05;;;;;;;;;;8328864;28;20099;-85
2023/03/29 20:07:12;;;;;;;45.88;18.40;;;;;;;;;;8329113;28;20049;-79
2023/03/29 20:11:18;;;;;;;41.35;14.70;;;;;;;;;;8331381;28;20493;-78
2023/03/29 20:15:24;;;;;;;39.95;15.07;;;;;;;;;;8335341;28;20045;-81
2023/03/29 20:19:28;;;;;;;31.15;12.50;;;;;;;;;;8335744;28;20099;-79
2023/03/29 20:23:33;;;;;;;36.55;14.52;;;;;;;;;;8335068;28;20455;-78
2023/03/29 20:27:36;;;;;;;25.08;12.55;;;;;;;;;;8333933;28;20056;-87
2023/03/29 20:31:39;;;;;;;31.80;12.93;;;;;;;;;;8334860;28;20148;-80
2023/03/29 20:35:45;;;;;;;27.35;11.52;;;;;;;;;;8335212;28;20064;-79
2023/03/29 20:39:50;;;;;;;27.65;11.57;;;;;;;;;;8334578;28;20432;-79
2023/03/29 20:43:58;;;;;;;21.20;8.38;;;;;;;;;;8335109;28;20358;-80
2023/03/29 20:48:02;;;;;;;15.40;6.28;;;;;;;;;;8334907;28;20133;-80
2023/03/29 20:52:07;;;;;;;27.20;10.25;;;;;;;;;;8334187;28;20386;-79
2023/03/29 20:56:11;;;;;;;29.85;12.13;;;;;;;;;;8305163;28;20050;-80
2023/03/29 21:00:15;;;;;;;23.55;8.82;;;;;;;;;;8316987;28;20061;-79
2023/03/29 21:04:19;;;;;;;56.97;18.27;;;;;;;;;;8334020;28;20061;-79
2023/03/29 21:08:22;;;;;;;20.85;9.30;;;;;;;;;;8313304;28;20141;-79
2023/03/29 21:12:26;;;;;;;34.00;13.70;;;;;;;;;;8333528;28;20050;-80
2023/03/29 21:16:29;;;;;;;22.98;11.20;;;;;;;;;;8333477;28;20045;-80
2023/03/29 21:20:32;;;;;;;22.98;11.52;;;;;;;;;;8333730;28;20425;-79
2023/03/29 21:24:36;;;;;;;26.67;10.52;;;;;;;;;;8332335;28;20140;-79
2023/03/29 21:28:41;;;;;;;16.83;7.97;;;;;;;;;;8333644;28;20042;-79
2023/03/29 21:32:44;;;;;;;24.75;10.88;;;;;;;;;;8333488;28;20099;-78
2023/03/29 21:36:47;;;;;;;21.23;9.57;;;;;;;;;;8332936;28;20057;-81
2023/03/29 21:40:50;;;;;;;20.65;9.65;;;;;;;;;;8332861;28;20120;-79
2023/03/29 21:44:54;;;;;;;18.23;8.63;;;;;;;;;;8332322;28;20169;-81
2023/03/29 21:48:57;;;;;;;20.88;10.18;;;;;;;;;;8332930;28;20103;-80
2023/03/29 21:53:01;;;;;;;22.38;9.80;;;;;;;;;;8332429;28;20061;-81
2023/03/29 21:57:04;;;;;;;25.20;11.00;;;;;;;;;;8332788;28;20477;-79
2023/03/29 22:01:09;;;;;;;39.33;15.27;;;;;;;;;;8332528;28;20485;-82
2023/03/29 22:05:12;;;;;;;31.45;9.18;;;;;;;;;;8332309;28;20056;-82
2023/03/29 22:09:15;;;;;;;29.65;11.48;;;;;;;;;;8332469;28;20041;-80
2023/03/29 22:13:17;;;;;;;36.03;14.65;;;;;;;;;;8322295;28;20042;-86
2023/03/29 22:17:25;;;;;;;40.45;14.93;;;;;;;;;;8329172;28;20063;-79
2023/03/29 22:21:30;;;;;;;34.28;13.38;;;;;;;;;;8331922;28;20045;-79
2023/03/29 22:25:32;;;;;;;34.42;14.48;;;;;;;;;;8331605;28;20059;-80
2023/03/29 22:29:35;;;;;;;29.95;12.18;;;;;;;;;;8331406;28;20132;-81
2023/03/29 22:33:40;;;;;;;32.72;12.38;;;;;;;;;;8331844;28;20041;-79
2023/03/29 22:37:44;;;;;;;25.45;9.75;;;;;;;;;;8331800;28;20053;-79
2023/03/29 22:41:47;;;;;;;28.92;11.63;;;;;;;;;;8331320;28;20095;-79
2023/03/29 22:45:50;;;;;;;24.00;9.98;;;;;;;;;;8331282;28;20052;-80
2023/03/29 22:49:54;;;;;;;32.88;11.77;;;;;;;;;;8330753;28;20052;-81
2023/03/29 22:53:57;;;;;;;27.55;10.38;;;;;;;;;;8313840;28;20097;-79
2023/03/29 22:57:59;;;;;;;28.98;11.77;;;;;;;;;;8323570;28;20041;-79
2023/03/29 23:02:02;;;;;;;22.67;9.82;;;;;;;;;;8330396;28;20136;-82
2023/03/29 23:06:07;;;;;;;23.00;9.13;;;;;;;;;;8328636;28;20048;-85
2023/03/29 23:10:11;;;;;;;26.35;9.55;;;;;;;;;;8330365;28;20057;-80
2023/03/29 23:14:14;;;;;;;21.48;10.10;;;;;;;;;;8330368;28;20049;-85
2023/03/29 23:18:20;;;;;;;20.88;9.10;;;;;;;;;;8330012;28;20056;-80
2023/03/29 23:22:25;;;;;;;22.40;8.98;;;;;;;;;;8330273;28;20084;-80
2023/03/29 23:26:28;;;;;;;23.27;11.05;;;;;;;;;;8329942;28;20136;-78
2023/03/29 23:30:31;;;;;;;22.05;9.18;;;;;;;;;;8329738;28;20053;-84
2023/03/29 23:34:34;;;;;;;23.73;9.27;;;;;;;;;;8329982;28;20408;-79
2023/03/29 23:38:39;;;;;;;22.45;8.25;;;;;;;;;;8329399;28;20060;-79
2023/03/29 23:42:44;;;;;;;30.83;12.13;;;;;;;;;;8330560;28;20051;-83
2023/03/29 23:46:46;;;;;;;24.40;9.50;;;;;;;;;;8329120;28;20483;-79
2023/03/29 23:50:49;;;;;;;28.45;12.27;;;;;;;;;;8329583;28;20046;-80
2023/03/29 23:54:54;;;;;;;19.08;8.23;;;;;;;;;;8329296;28;20602;-80
2023/03/29 23:58:57;;;;;;;30.42;10.73;;;;;;;;;;8329296;28;20130;-81
